Aviation Digital Data Service (ADDS)

Output produced by METARs form (0558 UTC 19 March 2019)
found at http://www.aviationweather.gov/metar/data/
 
UTDD 190530Z 10003MPS 7000 -SHRA SCT046CB OVC054 10/08 Q1014 R09/29//50 NOSIG RMK QFE692/0923
TAF UTDD 190300Z 1904/1916 VRB02MPS 6000 SCT011 BKN030CB OVC070 
     TEMPO 1904/1916 08006MPS 3100 -SHRA BR 
     PROB40 
     TEMPO 1904/1916 1800 TSRA BR
       
UTDL 190530Z 25009MPS 9999 FEW068CB OVC086 16/05 Q1011 R26/CLRD70 NOSIG RMK QFE720/0961
TAF UTDL 190300Z 1904/1913 24007MPS 6000 SCT050CB BKN080 
     TEMPO 1904/1913 -SHRA SCT011 BKN040CB